Belden, Mississippi
Current Conditions -  °F | °C
As of 8:39 AM on Sunday 23 Nov 2014 (Local Time) from KTUP Reporting Station
Haze Haze  
Wind Chill: 58°   Ceiling: 500
Heat Index: 58°   Visibility: 1.2mi
Dew Point: 56°   Wind: 5mph
Humidity: 93%   Direction: 90°E
Pressure: 29.75"   Gusts: NA
Location:  34.31°N, 88.79°W
Report Text: KTUP 231439Z 09004KT 1 1/4SM BR OVC005 14/13 A2975 RMK AO2 RAE1355 P0001 T01440133 $
Loading
Personal Weather Stations






























Interactive Weather Map New forecast layout! Learn more

10-Day Weather Forecast

Advertisements
Track Severe Weather on mobile